sensor_id;sensor_type;location;lat;lon;timestamp;temperature;humidity
12655;DHT22;6392;44.644;11.448;2023-05-10T00:02:23;20.70;99.90
12655;DHT22;6392;44.644;11.448;2023-05-10T00:04:50;20.70;99.90
12655;DHT22;6392;44.644;11.448;2023-05-10T00:07:17;20.70;99.90
12655;DHT22;6392;44.644;11.448;2023-05-10T00:09:44;20.70;99.90
12655;DHT22;6392;44.644;11.448;2023-05-10T00:12:11;20.60;99.90
12655;DHT22;6392;44.644;11.448;2023-05-10T00:14:37;20.60;99.90
12655;DHT22;6392;44.644;11.448;2023-05-10T00:17:04;20.60;99.90
12655;DHT22;6392;44.644;11.448;2023-05-10T00:19:32;20.60;99.90
12655;DHT22;6392;44.644;11.448;2023-05-10T00:21:59;20.60;99.90
12655;DHT22;6392;44.644;11.448;2023-05-10T00:24:26;20.50;99.90
12655;DHT22;6392;44.644;11.448;2023-05-10T00:26:53;20.50;99.90
12655;DHT22;6392;44.644;11.448;2023-05-10T00:29:19;20.50;99.90
12655;DHT22;6392;44.644;11.448;2023-05-10T00:31:46;20.50;99.90
12655;DHT22;6392;44.644;11.448;2023-05-10T00:34:13;20.50;99.90
12655;DHT22;6392;44.644;11.448;2023-05-10T00:36:41;20.50;99.90
12655;DHT22;6392;44.644;11.448;2023-05-10T00:39:08;20.50;99.90
12655;DHT22;6392;44.644;11.448;2023-05-10T00:41:35;20.50;99.90
12655;DHT22;6392;44.644;11.448;2023-05-10T00:44:01;20.50;99.90
12655;DHT22;6392;44.644;11.448;2023-05-10T00:46:29;20.50;99.90
12655;DHT22;6392;44.644;11.448;2023-05-10T00:48:56;20.50;99.90
12655;DHT22;6392;44.644;11.448;2023-05-10T00:51:23;20.40;99.90
12655;DHT22;6392;44.644;11.448;2023-05-10T00:53:51;20.40;99.90
12655;DHT22;6392;44.644;11.448;2023-05-10T00:56:18;20.40;99.90
12655;DHT22;6392;44.644;11.448;2023-05-10T00:58:45;20.30;99.90
12655;DHT22;6392;44.644;11.448;2023-05-10T01:01:12;20.30;99.90
12655;DHT22;6392;44.644;11.448;2023-05-10T01:03:40;20.30;99.90
12655;DHT22;6392;44.644;11.448;2023-05-10T01:06:07;20.30;99.90
12655;DHT22;6392;44.644;11.448;2023-05-10T01:08:35;20.30;99.90
12655;DHT22;6392;44.644;11.448;2023-05-10T01:11:03;20.30;99.90
12655;DHT22;6392;44.644;11.448;2023-05-10T01:13:31;20.20;99.90
12655;DHT22;6392;44.644;11.448;2023-05-10T01:15:59;20.20;99.90
12655;DHT22;6392;44.644;11.448;2023-05-10T01:18:27;20.20;99.90
12655;DHT22;6392;44.644;11.448;2023-05-10T01:20:56;20.20;99.90
12655;DHT22;6392;44.644;11.448;2023-05-10T01:23:36;20.20;99.90
12655;DHT22;6392;44.644;11.448;2023-05-10T01:31:59;20.10;99.90
12655;DHT22;6392;44.644;11.448;2023-05-10T01:34:32;20.10;99.90
12655;DHT22;6392;44.644;11.448;2023-05-10T01:37:02;20.00;99.90
12655;DHT22;6392;44.644;11.448;2023-05-10T01:39:33;20.00;99.90
12655;DHT22;6392;44.644;11.448;2023-05-10T01:42:03;20.00;99.90
12655;DHT22;6392;44.644;11.448;2023-05-10T01:44:34;20.00;99.90
12655;DHT22;6392;44.644;11.448;2023-05-10T01:47:04;19.90;99.90
12655;DHT22;6392;44.644;11.448;2023-05-10T01:49:34;19.90;99.90
12655;DHT22;6392;44.644;11.448;2023-05-10T01:52:04;19.90;99.90
12655;DHT22;6392;44.644;11.448;2023-05-10T01:54:32;19.80;99.90
12655;DHT22;6392;44.644;11.448;2023-05-10T01:57:00;19.80;99.90
12655;DHT22;6392;44.644;11.448;2023-05-10T01:59:29;19.80;99.90
12655;DHT22;6392;44.644;11.448;2023-05-10T02:01:57;19.80;99.90
12655;DHT22;6392;44.644;11.448;2023-05-10T02:04:26;19.80;99.90
12655;DHT22;6392;44.644;11.448;2023-05-10T02:06:53;19.70;99.90
12655;DHT22;6392;44.644;11.448;2023-05-10T02:09:21;19.80;99.90
12655;DHT22;6392;44.644;11.448;2023-05-10T02:11:48;19.70;99.90
12655;DHT22;6392;44.644;11.448;2023-05-10T02:14:15;19.70;99.90
12655;DHT22;6392;44.644;11.448;2023-05-10T02:16:42;19.70;99.90
12655;DHT22;6392;44.644;11.448;2023-05-10T02:19:09;19.70;99.90
12655;DHT22;6392;44.644;11.448;2023-05-10T02:21:38;19.70;99.90
12655;DHT22;6392;44.644;11.448;2023-05-10T02:24:05;19.70;99.90
12655;DHT22;6392;44.644;11.448;2023-05-10T02:26:34;19.70;99.90
12655;DHT22;6392;44.644;11.448;2023-05-10T02:29:02;19.70;99.90
12655;DHT22;6392;44.644;11.448;2023-05-10T02:31:29;19.70;99.90
12655;DHT22;6392;44.644;11.448;2023-05-10T02:33:57;19.70;99.90
12655;DHT22;6392;44.644;11.448;2023-05-10T02:36:24;19.70;99.90
12655;DHT22;6392;44.644;11.448;2023-05-10T02:38:54;19.70;99.90
12655;DHT22;6392;44.644;11.448;2023-05-10T02:41:21;19.70;99.90
12655;DHT22;6392;44.644;11.448;2023-05-10T02:43:49;19.60;99.90
12655;DHT22;6392;44.644;11.448;2023-05-10T02:46:16;19.60;99.90
12655;DHT22;6392;44.644;11.448;2023-05-10T02:48:43;19.60;99.90
12655;DHT22;6392;44.644;11.448;2023-05-10T02:51:10;19.50;99.90
12655;DHT22;6392;44.644;11.448;2023-05-10T02:53:40;19.50;99.90
12655;DHT22;6392;44.644;11.448;2023-05-10T02:56:10;19.50;99.90
12655;DHT22;6392;44.644;11.448;2023-05-10T02:58:38;19.50;99.90
12655;DHT22;6392;44.644;11.448;2023-05-10T03:01:05;19.50;99.90
12655;DHT22;6392;44.644;11.448;2023-05-10T03:03:33;19.50;99.90
12655;DHT22;6392;44.644;11.448;2023-05-10T03:05:59;19.50;99.90
12655;DHT22;6392;44.644;11.448;2023-05-10T03:08:26;19.50;99.90
12655;DHT22;6392;44.644;11.448;2023-05-10T03:10:55;19.50;99.90
12655;DHT22;6392;44.644;11.448;2023-05-10T03:13:30;19.40;99.90
12655;DHT22;6392;44.644;11.448;2023-05-10T03:16:04;19.40;99.90
12655;DHT22;6392;44.644;11.448;2023-05-10T03:18:33;19.40;99.90
12655;DHT22;6392;44.644;11.448;2023-05-10T03:21:04;19.40;99.90
12655;DHT22;6392;44.644;11.448;2023-05-10T03:23:34;19.30;99.90
12655;DHT22;6392;44.644;11.448;2023-05-10T03:26:01;19.40;99.90
12655;DHT22;6392;44.644;11.448;2023-05-10T03:28:29;19.30;99.90
12655;DHT22;6392;44.644;11.448;2023-05-10T03:30:56;19.30;99.90
12655;DHT22;6392;44.644;11.448;2023-05-10T03:33:23;19.30;99.90
12655;DHT22;6392;44.644;11.448;2023-05-10T03:35:50;19.30;99.90
12655;DHT22;6392;44.644;11.448;2023-05-10T03:38:17;19.20;99.90
12655;DHT22;6392;44.644;11.448;2023-05-10T03:40:44;19.20;99.90
12655;DHT22;6392;44.644;11.448;2023-05-10T03:43:10;19.20;99.90
12655;DHT22;6392;44.644;11.448;2023-05-10T03:45:39;19.20;99.90
12655;DHT22;6392;44.644;11.448;2023-05-10T03:48:05;19.20;99.90
12655;DHT22;6392;44.644;11.448;2023-05-10T03:50:32;19.10;99.90
12655;DHT22;6392;44.644;11.448;2023-05-10T03:52:59;19.10;99.90
12655;DHT22;6392;44.644;11.448;2023-05-10T03:55:26;19.10;99.90
12655;DHT22;6392;44.644;11.448;2023-05-10T03:57:53;19.00;99.90
12655;DHT22;6392;44.644;11.448;2023-05-10T04:00:20;19.00;99.90
12655;DHT22;6392;44.644;11.448;2023-05-10T04:02:48;19.00;99.90
12655;DHT22;6392;44.644;11.448;2023-05-10T04:05:15;18.90;99.90
12655;DHT22;6392;44.644;11.448;2023-05-10T04:07:42;18.90;99.90
12655;DHT22;6392;44.644;11.448;2023-05-10T04:10:09;18.90;99.90
12655;DHT22;6392;44.644;11.448;2023-05-10T04:12:36;18.90;99.90
12655;DHT22;6392;44.644;11.448;2023-05-10T04:15:03;18.80;99.90
12655;DHT22;6392;44.644;11.448;2023-05-10T04:17:30;18.80;99.90
12655;DHT22;6392;44.644;11.448;2023-05-10T04:19:58;18.80;99.90
12655;DHT22;6392;44.644;11.448;2023-05-10T04:22:25;18.80;99.90
12655;DHT22;6392;44.644;11.448;2023-05-10T04:24:53;18.80;99.90
12655;DHT22;6392;44.644;11.448;2023-05-10T04:27:19;18.70;99.90
12655;DHT22;6392;44.644;11.448;2023-05-10T04:29:46;18.70;99.90
12655;DHT22;6392;44.644;11.448;2023-05-10T04:32:13;18.70;99.90
12655;DHT22;6392;44.644;11.448;2023-05-10T04:34:41;18.70;99.90
12655;DHT22;6392;44.644;11.448;2023-05-10T04:37:09;18.70;99.90
12655;DHT22;6392;44.644;11.448;2023-05-10T04:39:36;18.70;99.90
12655;DHT22;6392;44.644;11.448;2023-05-10T04:42:03;18.70;99.90
12655;DHT22;6392;44.644;11.448;2023-05-10T04:44:31;18.60;99.90
12655;DHT22;6392;44.644;11.448;2023-05-10T04:46:58;18.70;99.90
12655;DHT22;6392;44.644;11.448;2023-05-10T04:49:24;18.60;99.90
12655;DHT22;6392;44.644;11.448;2023-05-10T04:51:51;18.70;99.90
12655;DHT22;6392;44.644;11.448;2023-05-10T04:54:19;18.60;99.90
12655;DHT22;6392;44.644;11.448;2023-05-10T04:56:46;18.60;99.90
12655;DHT22;6392;44.644;11.448;2023-05-10T04:59:13;18.60;99.90
12655;DHT22;6392;44.644;11.448;2023-05-10T05:01:40;18.60;99.90
12655;DHT22;6392;44.644;11.448;2023-05-10T05:04:06;18.60;99.90
12655;DHT22;6392;44.644;11.448;2023-05-10T05:06:33;18.60;99.90
12655;DHT22;6392;44.644;11.448;2023-05-10T05:09:00;18.60;99.90
12655;DHT22;6392;44.644;11.448;2023-05-10T05:11:28;18.60;99.90
12655;DHT22;6392;44.644;11.448;2023-05-10T05:13:55;18.60;99.90
12655;DHT22;6392;44.644;11.448;2023-05-10T05:16:24;18.60;99.90
12655;DHT22;6392;44.644;11.448;2023-05-10T05:18:51;18.60;99.90
12655;DHT22;6392;44.644;11.448;2023-05-10T05:21:18;18.60;99.90
12655;DHT22;6392;44.644;11.448;2023-05-10T05:23:45;18.60;99.90
12655;DHT22;6392;44.644;11.448;2023-05-10T05:26:11;18.60;99.90
12655;DHT22;6392;44.644;11.448;2023-05-10T05:28:40;18.60;99.90
12655;DHT22;6392;44.644;11.448;2023-05-10T05:31:06;18.60;99.90
12655;DHT22;6392;44.644;11.448;2023-05-10T05:33:34;18.60;99.90
12655;DHT22;6392;44.644;11.448;2023-05-10T05:36:01;18.60;99.90
12655;DHT22;6392;44.644;11.448;2023-05-10T05:38:28;18.60;99.90
12655;DHT22;6392;44.644;11.448;2023-05-10T05:40:55;18.60;99.90
12655;DHT22;6392;44.644;11.448;2023-05-10T05:43:21;18.60;99.90
12655;DHT22;6392;44.644;11.448;2023-05-10T05:45:51;18.60;99.90
12655;DHT22;6392;44.644;11.448;2023-05-10T05:48:18;18.70;99.90
12655;DHT22;6392;44.644;11.448;2023-05-10T05:50:45;18.60;99.90
12655;DHT22;6392;44.644;11.448;2023-05-10T05:53:12;18.60;99.90
12655;DHT22;6392;44.644;11.448;2023-05-10T05:55:38;18.60;99.90
12655;DHT22;6392;44.644;11.448;2023-05-10T05:58:05;18.60;99.90
12655;DHT22;6392;44.644;11.448;2023-05-10T06:00:32;18.60;99.90
12655;DHT22;6392;44.644;11.448;2023-05-10T06:03:00;18.60;99.90
12655;DHT22;6392;44.644;11.448;2023-05-10T06:05:27;18.60;99.90
12655;DHT22;6392;44.644;11.448;2023-05-10T06:07:54;18.60;99.90
12655;DHT22;6392;44.644;11.448;2023-05-10T06:10:20;18.60;99.90
12655;DHT22;6392;44.644;11.448;2023-05-10T06:12:47;18.60;99.90
12655;DHT22;6392;44.644;11.448;2023-05-10T06:15:14;18.70;99.90
12655;DHT22;6392;44.644;11.448;2023-05-10T06:17:40;18.70;99.90
12655;DHT22;6392;44.644;11.448;2023-05-10T06:20:10;18.70;99.90
12655;DHT22;6392;44.644;11.448;2023-05-10T06:22:37;18.60;99.90
12655;DHT22;6392;44.644;11.448;2023-05-10T06:25:04;18.60;99.90
12655;DHT22;6392;44.644;11.448;2023-05-10T06:27:31;18.60;99.90
12655;DHT22;6392;44.644;11.448;2023-05-10T06:29:58;18.60;99.90
12655;DHT22;6392;44.644;11.448;2023-05-10T06:32:25;18.60;99.90
12655;DHT22;6392;44.644;11.448;2023-05-10T06:34:52;18.70;99.90
12655;DHT22;6392;44.644;11.448;2023-05-10T06:37:20;18.60;99.90
12655;DHT22;6392;44.644;11.448;2023-05-10T06:39:47;18.70;99.90
12655;DHT22;6392;44.644;11.448;2023-05-10T06:42:13;18.70;99.90
12655;DHT22;6392;44.644;11.448;2023-05-10T06:44:40;18.70;99.90
12655;DHT22;6392;44.644;11.448;2023-05-10T06:47:07;18.60;99.90
12655;DHT22;6392;44.644;11.448;2023-05-10T06:49:34;18.60;99.90
12655;DHT22;6392;44.644;11.448;2023-05-10T06:52:00;18.60;99.90
12655;DHT22;6392;44.644;11.448;2023-05-10T06:54:29;18.60;99.90
12655;DHT22;6392;44.644;11.448;2023-05-10T06:56:55;18.50;99.90
12655;DHT22;6392;44.644;11.448;2023-05-10T06:59:22;18.70;99.90
12655;DHT22;6392;44.644;11.448;2023-05-10T07:01:49;18.80;99.90
12655;DHT22;6392;44.644;11.448;2023-05-10T07:04:16;18.90;99.90
12655;DHT22;6392;44.644;11.448;2023-05-10T07:06:43;18.70;99.90
12655;DHT22;6392;44.644;11.448;2023-05-10T07:09:11;18.70;99.90
12655;DHT22;6392;44.644;11.448;2023-05-10T07:11:40;18.60;99.90
12655;DHT22;6392;44.644;11.448;2023-05-10T07:14:06;18.60;99.90
12655;DHT22;6392;44.644;11.448;2023-05-10T07:16:33;18.50;99.90
12655;DHT22;6392;44.644;11.448;2023-05-10T07:19:00;18.50;99.90
12655;DHT22;6392;44.644;11.448;2023-05-10T07:21:27;18.50;99.90
12655;DHT22;6392;44.644;11.448;2023-05-10T07:23:54;18.40;99.90
12655;DHT22;6392;44.644;11.448;2023-05-10T07:26:21;18.40;99.90
12655;DHT22;6392;44.644;11.448;2023-05-10T07:28:49;18.40;99.90
12655;DHT22;6392;44.644;11.448;2023-05-10T07:31:16;18.40;99.90
12655;DHT22;6392;44.644;11.448;2023-05-10T07:33:43;18.40;99.90
12655;DHT22;6392;44.644;11.448;2023-05-10T07:36:09;18.40;99.90
12655;DHT22;6392;44.644;11.448;2023-05-10T07:38:36;18.40;99.90
12655;DHT22;6392;44.644;11.448;2023-05-10T07:41:03;18.40;99.90
12655;DHT22;6392;44.644;11.448;2023-05-10T07:43:30;18.40;99.90
12655;DHT22;6392;44.644;11.448;2023-05-10T07:45:58;18.40;99.90
12655;DHT22;6392;44.644;11.448;2023-05-10T07:48:25;18.50;99.90
12655;DHT22;6392;44.644;11.448;2023-05-10T07:50:52;18.40;99.90
12655;DHT22;6392;44.644;11.448;2023-05-10T07:53:19;18.40;99.90
12655;DHT22;6392;44.644;11.448;2023-05-10T07:55:49;18.40;99.90
12655;DHT22;6392;44.644;11.448;2023-05-10T07:58:16;18.40;99.90
12655;DHT22;6392;44.644;11.448;2023-05-10T08:00:43;18.40;99.90
12655;DHT22;6392;44.644;11.448;2023-05-10T08:03:11;18.40;99.90
12655;DHT22;6392;44.644;11.448;2023-05-10T08:05:38;18.50;99.90
12655;DHT22;6392;44.644;11.448;2023-05-10T08:08:05;18.50;99.90
12655;DHT22;6392;44.644;11.448;2023-05-10T08:10:31;18.50;99.90
12655;DHT22;6392;44.644;11.448;2023-05-10T08:12:58;18.50;99.90
12655;DHT22;6392;44.644;11.448;2023-05-10T08:15:25;18.60;99.90
12655;DHT22;6392;44.644;11.448;2023-05-10T08:17:52;18.60;99.90
12655;DHT22;6392;44.644;11.448;2023-05-10T08:20:20;18.70;99.90
12655;DHT22;6392;44.644;11.448;2023-05-10T08:22:47;18.70;99.90
12655;DHT22;6392;44.644;11.448;2023-05-10T08:25:13;18.70;99.90
12655;DHT22;6392;44.644;11.448;2023-05-10T08:27:40;18.80;99.90
12655;DHT22;6392;44.644;11.448;2023-05-10T08:30:08;18.90;99.90
12655;DHT22;6392;44.644;11.448;2023-05-10T08:32:34;18.90;99.90
12655;DHT22;6392;44.644;11.448;2023-05-10T08:35:03;18.90;99.90
12655;DHT22;6392;44.644;11.448;2023-05-10T08:37:31;18.90;99.90
12655;DHT22;6392;44.644;11.448;2023-05-10T08:39:58;19.00;99.90
12655;DHT22;6392;44.644;11.448;2023-05-10T08:42:25;19.10;99.90
12655;DHT22;6392;44.644;11.448;2023-05-10T08:44:55;19.10;99.90
12655;DHT22;6392;44.644;11.448;2023-05-10T08:47:23;19.30;99.90
12655;DHT22;6392;44.644;11.448;2023-05-10T08:49:50;19.30;99.90
12655;DHT22;6392;44.644;11.448;2023-05-10T08:52:18;19.40;99.90
12655;DHT22;6392;44.644;11.448;2023-05-10T08:54:46;19.40;99.90
12655;DHT22;6392;44.644;11.448;2023-05-10T08:57:13;19.40;99.90
12655;DHT22;6392;44.644;11.448;2023-05-10T08:59:40;19.40;99.90
12655;DHT22;6392;44.644;11.448;2023-05-10T09:02:07;19.40;99.90
12655;DHT22;6392;44.644;11.448;2023-05-10T09:04:36;19.40;99.90
12655;DHT22;6392;44.644;11.448;2023-05-10T09:07:03;19.40;99.90
12655;DHT22;6392;44.644;11.448;2023-05-10T09:09:30;19.40;99.90
12655;DHT22;6392;44.644;11.448;2023-05-10T09:11:58;19.40;99.90
12655;DHT22;6392;44.644;11.448;2023-05-10T09:14:25;19.40;99.90
12655;DHT22;6392;44.644;11.448;2023-05-10T09:16:53;19.40;99.90
12655;DHT22;6392;44.644;11.448;2023-05-10T09:19:20;19.30;99.90
12655;DHT22;6392;44.644;11.448;2023-05-10T09:21:47;19.30;99.90
12655;DHT22;6392;44.644;11.448;2023-05-10T09:24:15;19.30;99.90
12655;DHT22;6392;44.644;11.448;2023-05-10T09:26:48;19.30;99.90
12655;DHT22;6392;44.644;11.448;2023-05-10T09:29:16;19.30;99.90
12655;DHT22;6392;44.644;11.448;2023-05-10T09:31:44;19.30;99.90
12655;DHT22;6392;44.644;11.448;2023-05-10T09:34:11;19.40;99.90
12655;DHT22;6392;44.644;11.448;2023-05-10T09:36:51;19.40;99.90
12655;DHT22;6392;44.644;11.448;2023-05-10T09:39:18;19.30;99.90
12655;DHT22;6392;44.644;11.448;2023-05-10T09:41:45;19.30;99.90
12655;DHT22;6392;44.644;11.448;2023-05-10T09:44:14;19.30;99.90
12655;DHT22;6392;44.644;11.448;2023-05-10T09:46:44;19.20;99.90
12655;DHT22;6392;44.644;11.448;2023-05-10T09:49:14;19.20;99.90
12655;DHT22;6392;44.644;11.448;2023-05-10T09:51:41;19.20;99.90
12655;DHT22;6392;44.644;11.448;2023-05-10T09:54:09;19.10;99.90
12655;DHT22;6392;44.644;11.448;2023-05-10T09:56:36;19.10;99.90
12655;DHT22;6392;44.644;11.448;2023-05-10T09:59:05;19.10;99.90
12655;DHT22;6392;44.644;11.448;2023-05-10T10:01:32;19.10;99.90
12655;DHT22;6392;44.644;11.448;2023-05-10T10:04:00;19.10;99.90
12655;DHT22;6392;44.644;11.448;2023-05-10T10:06:29;19.10;99.90
12655;DHT22;6392;44.644;11.448;2023-05-10T10:08:55;19.10;99.90
12655;DHT22;6392;44.644;11.448;2023-05-10T10:11:23;18.90;99.90
12655;DHT22;6392;44.644;11.448;2023-05-10T10:13:50;18.80;99.90
12655;DHT22;6392;44.644;11.448;2023-05-10T10:16:17;18.70;99.90
12655;DHT22;6392;44.644;11.448;2023-05-10T10:18:43;18.70;99.90
12655;DHT22;6392;44.644;11.448;2023-05-10T10:21:12;18.60;99.90
12655;DHT22;6392;44.644;11.448;2023-05-10T10:23:39;18.50;99.90
12655;DHT22;6392;44.644;11.448;2023-05-10T10:26:06;18.40;99.90
12655;DHT22;6392;44.644;11.448;2023-05-10T10:28:35;18.30;99.90
12655;DHT22;6392;44.644;11.448;2023-05-10T10:31:12;18.20;99.90
12655;DHT22;6392;44.644;11.448;2023-05-10T10:33:43;18.20;99.90
12655;DHT22;6392;44.644;11.448;2023-05-10T10:36:18;18.20;99.90
12655;DHT22;6392;44.644;11.448;2023-05-10T10:38:55;18.10;99.90
12655;DHT22;6392;44.644;11.448;2023-05-10T10:41:29;18.10;99.90
12655;DHT22;6392;44.644;11.448;2023-05-10T10:49:23;17.90;99.90
12655;DHT22;6392;44.644;11.448;2023-05-10T10:54:32;17.80;99.90
12655;DHT22;6392;44.644;11.448;2023-05-10T10:59:41;17.70;99.90
12655;DHT22;6392;44.644;11.448;2023-05-10T11:02:09;17.70;99.90
12655;DHT22;6392;44.644;11.448;2023-05-10T11:04:42;17.60;99.90
12655;DHT22;6392;44.644;11.448;2023-05-10T11:07:18;17.70;99.90
12655;DHT22;6392;44.644;11.448;2023-05-10T11:09:47;17.70;99.90
12655;DHT22;6392;44.644;11.448;2023-05-10T11:12:13;17.70;99.90
12655;DHT22;6392;44.644;11.448;2023-05-10T11:14:40;17.70;99.90
12655;DHT22;6392;44.644;11.448;2023-05-10T11:17:22;17.60;99.90
12655;DHT22;6392;44.644;11.448;2023-05-10T11:20:06;17.60;99.90
12655;DHT22;6392;44.644;11.448;2023-05-10T11:22:45;17.60;99.90
12655;DHT22;6392;44.644;11.448;2023-05-10T11:25:16;17.50;99.90
12655;DHT22;6392;44.644;11.448;2023-05-10T11:27:43;17.50;99.90
12655;DHT22;6392;44.644;11.448;2023-05-10T11:30:10;17.40;99.90
12655;DHT22;6392;44.644;11.448;2023-05-10T11:32:37;17.40;99.90
12655;DHT22;6392;44.644;11.448;2023-05-10T11:35:08;17.30;99.90
12655;DHT22;6392;44.644;11.448;2023-05-10T11:37:35;17.30;99.90
12655;DHT22;6392;44.644;11.448;2023-05-10T11:40:01;17.30;99.90
12655;DHT22;6392;44.644;11.448;2023-05-10T11:42:30;17.20;99.90
12655;DHT22;6392;44.644;11.448;2023-05-10T11:44:56;17.20;99.90
12655;DHT22;6392;44.644;11.448;2023-05-10T11:47:23;17.10;99.90
12655;DHT22;6392;44.644;11.448;2023-05-10T11:49:50;17.10;99.90
12655;DHT22;6392;44.644;11.448;2023-05-10T11:52:18;17.00;99.90
12655;DHT22;6392;44.644;11.448;2023-05-10T11:54:45;17.00;99.90
12655;DHT22;6392;44.644;11.448;2023-05-10T11:57:12;16.90;99.90
12655;DHT22;6392;44.644;11.448;2023-05-10T11:59:40;16.90;99.90
12655;DHT22;6392;44.644;11.448;2023-05-10T12:02:07;16.80;99.90
12655;DHT22;6392;44.644;11.448;2023-05-10T12:04:34;16.80;99.90
12655;DHT22;6392;44.644;11.448;2023-05-10T12:07:01;16.80;99.90
12655;DHT22;6392;44.644;11.448;2023-05-10T12:09:27;16.70;99.90
12655;DHT22;6392;44.644;11.448;2023-05-10T12:11:55;16.70;99.90
12655;DHT22;6392;44.644;11.448;2023-05-10T12:14:22;16.70;99.90
12655;DHT22;6392;44.644;11.448;2023-05-10T12:16:51;16.70;99.90
12655;DHT22;6392;44.644;11.448;2023-05-10T12:19:18;16.60;99.90
12655;DHT22;6392;44.644;11.448;2023-05-10T12:21:45;16.60;99.90
12655;DHT22;6392;44.644;11.448;2023-05-10T12:24:12;16.60;99.90
12655;DHT22;6392;44.644;11.448;2023-05-10T12:26:41;16.60;99.90
12655;DHT22;6392;44.644;11.448;2023-05-10T12:29:11;16.50;99.90
12655;DHT22;6392;44.644;11.448;2023-05-10T12:31:48;16.50;99.90
12655;DHT22;6392;44.644;11.448;2023-05-10T12:34:23;16.50;99.90
12655;DHT22;6392;44.644;11.448;2023-05-10T12:36:50;16.50;99.90
12655;DHT22;6392;44.644;11.448;2023-05-10T12:39:17;16.40;99.90
12655;DHT22;6392;44.644;11.448;2023-05-10T12:41:44;16.40;99.90
12655;DHT22;6392;44.644;11.448;2023-05-10T12:44:11;16.40;99.90
12655;DHT22;6392;44.644;11.448;2023-05-10T12:46:37;16.40;99.90
12655;DHT22;6392;44.644;11.448;2023-05-10T12:49:04;16.30;99.90
12655;DHT22;6392;44.644;11.448;2023-05-10T12:51:32;16.30;99.90
12655;DHT22;6392;44.644;11.448;2023-05-10T12:53:59;16.30;99.90
12655;DHT22;6392;44.644;11.448;2023-05-10T12:56:26;16.30;99.90
12655;DHT22;6392;44.644;11.448;2023-05-10T12:58:53;16.20;99.90
12655;DHT22;6392;44.644;11.448;2023-05-10T13:01:19;16.20;99.90
12655;DHT22;6392;44.644;11.448;2023-05-10T13:03:46;16.20;99.90
12655;DHT22;6392;44.644;11.448;2023-05-10T13:06:13;16.20;99.90
12655;DHT22;6392;44.644;11.448;2023-05-10T13:08:41;16.20;99.90
12655;DHT22;6392;44.644;11.448;2023-05-10T13:11:08;16.10;99.90
12655;DHT22;6392;44.644;11.448;2023-05-10T13:13:35;16.10;99.90
12655;DHT22;6392;44.644;11.448;2023-05-10T13:16:02;16.10;99.90
12655;DHT22;6392;44.644;11.448;2023-05-10T13:18:29;16.10;99.90
12655;DHT22;6392;44.644;11.448;2023-05-10T13:20:56;16.00;99.90
12655;DHT22;6392;44.644;11.448;2023-05-10T13:23:22;16.00;99.90
12655;DHT22;6392;44.644;11.448;2023-05-10T13:25:51;16.00;99.90
12655;DHT22;6392;44.644;11.448;2023-05-10T13:28:17;15.90;99.90
12655;DHT22;6392;44.644;11.448;2023-05-10T13:30:46;15.90;99.90
12655;DHT22;6392;44.644;11.448;2023-05-10T13:33:13;15.90;99.90
12655;DHT22;6392;44.644;11.448;2023-05-10T13:35:40;15.90;99.90
12655;DHT22;6392;44.644;11.448;2023-05-10T13:38:06;15.90;99.90
12655;DHT22;6392;44.644;11.448;2023-05-10T13:40:33;15.90;99.90
12655;DHT22;6392;44.644;11.448;2023-05-10T13:43:02;15.90;99.90
12655;DHT22;6392;44.644;11.448;2023-05-10T13:45:29;15.90;99.90
12655;DHT22;6392;44.644;11.448;2023-05-10T13:47:56;15.90;99.90
12655;DHT22;6392;44.644;11.448;2023-05-10T13:50:22;15.80;99.90
12655;DHT22;6392;44.644;11.448;2023-05-10T13:52:49;15.80;99.90
12655;DHT22;6392;44.644;11.448;2023-05-10T13:55:16;15.80;99.90
12655;DHT22;6392;44.644;11.448;2023-05-10T13:57:43;15.80;99.90
12655;DHT22;6392;44.644;11.448;2023-05-10T14:00:12;15.80;99.90
12655;DHT22;6392;44.644;11.448;2023-05-10T14:02:39;15.80;99.90
12655;DHT22;6392;44.644;11.448;2023-05-10T14:05:06;15.80;99.90
12655;DHT22;6392;44.644;11.448;2023-05-10T14:07:32;15.70;99.90
12655;DHT22;6392;44.644;11.448;2023-05-10T14:09:59;15.70;99.90
12655;DHT22;6392;44.644;11.448;2023-05-10T14:12:26;15.70;99.90
12655;DHT22;6392;44.644;11.448;2023-05-10T14:14:53;15.60;99.90
12655;DHT22;6392;44.644;11.448;2023-05-10T14:17:21;15.60;99.90
12655;DHT22;6392;44.644;11.448;2023-05-10T14:19:48;15.60;99.90
12655;DHT22;6392;44.644;11.448;2023-05-10T14:22:15;15.60;99.90
12655;DHT22;6392;44.644;11.448;2023-05-10T14:24:42;15.60;99.90
12655;DHT22;6392;44.644;11.448;2023-05-10T14:27:12;15.50;99.90
12655;DHT22;6392;44.644;11.448;2023-05-10T14:29:38;15.60;99.90
12655;DHT22;6392;44.644;11.448;2023-05-10T14:32:05;15.60;99.90
12655;DHT22;6392;44.644;11.448;2023-05-10T14:34:33;15.60;99.90
12655;DHT22;6392;44.644;11.448;2023-05-10T14:37:00;15.60;99.90
12655;DHT22;6392;44.644;11.448;2023-05-10T14:39:27;15.60;99.90
12655;DHT22;6392;44.644;11.448;2023-05-10T14:41:55;15.60;99.90
12655;DHT22;6392;44.644;11.448;2023-05-10T14:44:22;15.60;99.90
12655;DHT22;6392;44.644;11.448;2023-05-10T14:46:49;15.60;99.90
12655;DHT22;6392;44.644;11.448;2023-05-10T14:49:15;15.60;99.90
12655;DHT22;6392;44.644;11.448;2023-05-10T14:51:44;15.50;99.90
12655;DHT22;6392;44.644;11.448;2023-05-10T14:54:11;15.50;99.90
12655;DHT22;6392;44.644;11.448;2023-05-10T14:56:38;15.50;99.90
12655;DHT22;6392;44.644;11.448;2023-05-10T14:59:06;15.50;99.90
12655;DHT22;6392;44.644;11.448;2023-05-10T15:01:33;15.50;99.90
12655;DHT22;6392;44.644;11.448;2023-05-10T15:04:02;15.50;99.90
12655;DHT22;6392;44.644;11.448;2023-05-10T15:06:32;15.50;99.90
12655;DHT22;6392;44.644;11.448;2023-05-10T15:09:00;15.40;99.90
12655;DHT22;6392;44.644;11.448;2023-05-10T15:11:28;15.40;99.90
12655;DHT22;6392;44.644;11.448;2023-05-10T15:13:55;15.50;99.90
12655;DHT22;6392;44.644;11.448;2023-05-10T15:16:22;15.40;99.90
12655;DHT22;6392;44.644;11.448;2023-05-10T15:18:49;15.40;99.90
12655;DHT22;6392;44.644;11.448;2023-05-10T15:21:16;15.40;99.90
12655;DHT22;6392;44.644;11.448;2023-05-10T15:23:42;15.40;99.90
12655;DHT22;6392;44.644;11.448;2023-05-10T15:26:10;15.40;99.90
12655;DHT22;6392;44.644;11.448;2023-05-10T15:28:37;15.30;99.90
12655;DHT22;6392;44.644;11.448;2023-05-10T15:31:04;15.30;99.90
12655;DHT22;6392;44.644;11.448;2023-05-10T15:33:31;15.40;99.90
12655;DHT22;6392;44.644;11.448;2023-05-10T15:35:58;15.40;99.90
12655;DHT22;6392;44.644;11.448;2023-05-10T15:38:25;15.40;99.90
12655;DHT22;6392;44.644;11.448;2023-05-10T15:40:52;15.30;99.90
12655;DHT22;6392;44.644;11.448;2023-05-10T15:43:22;15.40;99.90
12655;DHT22;6392;44.644;11.448;2023-05-10T15:45:49;15.40;99.90
12655;DHT22;6392;44.644;11.448;2023-05-10T15:48:16;15.40;99.90
12655;DHT22;6392;44.644;11.448;2023-05-10T15:50:43;15.30;99.90